Time;durP1;ratioP1;P1;durP2;ratioP2;P2;SDS_P1;SDS_P2;PMS_P1;PMS_P2;Temp;Humidity;BMP_temperature;BMP_pressure;BME280_temperature;BME280_humidity;BME280_pressure;Samples;Min_cycle;Max_cycle;Signal;HPM_P1;HPM_P2
2022/04/19 00:03:31;;;;;;;13.35;8.80;;;;;;;8.42;50.46;100365.53;8642796;33;20163;-74
2022/04/19 00:08:34;;;;;;;13.82;8.82;;;;;;;8.30;51.33;100362.78;8640044;33;20159;-74
2022/04/19 00:13:39;;;;;;;11.68;8.50;;;;;;;8.13;51.89;100360.47;8640107;33;20434;-73
2022/04/19 00:18:42;;;;;;;10.63;7.47;;;;;;;7.88;52.84;100364.03;8636591;33;20398;-73
2022/04/19 00:23:46;;;;;;;13.23;8.57;;;;;;;7.58;53.61;100367.88;8638110;33;20534;-73
2022/04/19 00:28:50;;;;;;;13.65;7.97;;;;;;;7.44;54.15;100359.94;8635470;33;20139;-74
2022/04/19 00:33:53;;;;;;;13.43;8.45;;;;;;;7.50;53.67;100356.84;8636472;33;20467;-73
2022/04/19 00:38:56;;;;;;;13.38;8.63;;;;;;;7.54;53.12;100358.34;8640399;33;20789;-73
2022/04/19 00:44:01;;;;;;;17.00;9.75;;;;;;;7.36;53.56;100354.28;8641160;33;20852;-73
2022/04/19 00:49:04;;;;;;;13.55;9.10;;;;;;;7.54;53.72;100339.63;8615482;33;20264;-73
2022/04/19 00:54:08;;;;;;;15.38;9.80;;;;;;;7.50;53.64;100332.78;8634996;33;20142;-74
2022/04/19 00:59:13;;;;;;;13.80;9.43;;;;;;;7.63;53.73;100339.00;8610602;33;20444;-74
2022/04/19 01:04:16;;;;;;;13.15;8.57;;;;;;;7.43;53.87;100334.16;8614572;33;20582;-75
2022/04/19 01:09:21;;;;;;;15.80;9.68;;;;;;;7.34;54.07;100332.13;8615732;33;20147;-74
2022/04/19 01:14:28;;;;;;;15.85;9.88;;;;;;;7.33;54.07;100333.94;8616148;33;21035;-74
2022/04/19 01:19:31;;;;;;;17.55;9.98;;;;;;;7.29;54.07;100337.78;8616257;33;20224;-75
2022/04/19 01:24:39;;;;;;;14.95;9.80;;;;;;;7.22;54.35;100337.34;8616490;33;20146;-74
2022/04/19 01:29:42;;;;;;;14.80;9.68;;;;;;;7.28;54.56;100336.06;8615572;33;20638;-75
2022/04/19 01:34:46;;;;;;;14.75;10.20;;;;;;;7.37;54.09;100337.25;8612842;33;20155;-74
2022/04/19 01:45:20;;;;;;;15.48;10.05;;;;;;;7.03;55.19;100328.88;8613187;33;20399;-74
2022/04/19 01:50:26;;;;;;;17.25;10.93;;;;;;;6.92;55.73;100336.75;8614995;33;20408;-75
2022/04/19 01:55:30;;;;;;;16.92;9.68;;;;;;;6.80;56.31;100333.91;8612104;33;20147;-74
2022/04/19 02:00:40;;;;;;;16.10;10.30;;;;;;;6.64;56.65;100335.88;8615592;33;20180;-75
2022/04/19 02:05:46;;;;;;;17.98;11.35;;;;;;;6.59;56.88;100330.81;8615560;33;20411;-75
2022/04/19 02:10:50;;;;;;;15.45;10.75;;;;;;;6.51;57.76;100319.78;8640756;33;20225;-75
2022/04/19 02:15:54;;;;;;;16.38;10.40;;;;;;;6.44;58.03;100320.28;8611802;33;20143;-75
2022/04/19 02:21:01;;;;;;;21.27;12.00;;;;;;;6.39;59.08;100321.44;8610124;33;20245;-75
2022/04/19 02:26:07;;;;;;;15.32;10.43;;;;;;;6.29;59.05;100309.66;8601849;33;20476;-74
2022/04/19 02:31:13;;;;;;;15.48;10.32;;;;;;;6.33;59.28;100310.28;8602931;33;20158;-74
2022/04/19 02:36:23;;;;;;;16.92;10.98;;;;;;;6.36;58.76;100308.31;8601881;33;21040;-74
2022/04/19 02:41:28;;;;;;;17.95;10.80;;;;;;;6.35;59.22;100303.91;8625646;33;20428;-74
2022/04/19 02:46:37;;;;;;;18.00;9.95;;;;;;;6.52;58.87;100310.81;8601184;33;20160;-74
2022/04/19 02:51:42;;;;;;;16.95;10.43;;;;;;;6.40;58.73;100322.28;8604958;33;20561;-75
2022/04/19 02:56:47;;;;;;;19.20;11.10;;;;;;;6.27;59.53;100318.69;8582131;27;20276;-72
2022/04/19 03:01:50;;;;;;;15.33;10.00;;;;;;;5.64;61.28;100325.31;8522218;33;20959;-74
2022/04/19 03:06:54;;;;;;;20.27;10.18;;;;;;;5.29;62.52;100325.63;8499555;33;20176;-74
2022/04/19 03:11:58;;;;;;;16.15;10.35;;;;;;;5.03;64.06;100317.41;8506702;33;20133;-72
2022/04/19 03:17:01;;;;;;;19.33;11.32;;;;;;;5.29;63.89;100314.97;8540477;33;20465;-72
2022/04/19 03:22:05;;;;;;;16.85;10.60;;;;;;;5.49;63.07;100311.97;8539517;33;20152;-72
2022/04/19 03:32:32;;;;;;;19.80;11.98;;;;;;;5.11;63.95;100308.97;8508353;33;20555;-74
2022/04/19 03:37:35;;;;;;;19.33;11.73;;;;;;;4.96;64.14;100310.66;8504453;33;20451;-74
2022/04/19 03:42:41;;;;;;;21.73;10.90;;;;;;;4.74;65.43;100318.19;8504455;33;20408;-74
2022/04/19 03:47:45;;;;;;;15.77;10.65;;;;;;;4.62;66.37;100312.66;8498781;33;20446;-74
2022/04/19 03:52:50;;;;;;;17.02;11.43;;;;;;;4.82;65.93;100313.28;8498537;33;20429;-74
2022/04/19 03:57:55;;;;;;;21.73;11.50;;;;;;;5.11;64.91;100316.94;8498761;33;20412;-74
2022/04/19 04:02:58;;;;;;;21.05;11.55;;;;;;;5.24;63.96;100309.09;8501185;33;20197;-74
2022/04/19 04:08:03;;;;;;;19.67;11.80;;;;;;;5.29;63.67;100312.31;8497528;33;20155;-74
2022/04/19 04:13:16;;;;;;;19.90;12.73;;;;;;;5.41;63.47;100310.75;8497541;33;20145;-74
2022/04/19 04:18:19;;;;;;;16.75;10.75;;;;;;;5.58;62.93;100307.88;8495728;33;20447;-74
2022/04/19 04:23:22;;;;;;;18.60;11.15;;;;;;;5.50;62.54;100315.50;8496409;33;20430;-74
2022/04/19 04:28:28;;;;;;;18.65;11.95;;;;;;;5.41;62.44;100311.59;8496795;33;20954;-74
2022/04/19 04:33:31;;;;;;;16.42;10.40;;;;;;;5.39;62.51;100310.81;8496291;33;20141;-74
2022/04/19 04:38:38;;;;;;;17.33;11.10;;;;;;;5.37;62.77;100312.72;8491389;33;20145;-74
2022/04/19 04:43:50;;;;;;;17.50;10.98;;;;;;;5.33;62.70;100316.53;8488262;33;20214;-74
2022/04/19 04:54:19;;;;;;;16.92;11.13;;;;;;;5.22;63.15;100325.16;8480769;33;21339;-74
2022/04/19 04:59:24;;;;;;;17.00;11.50;;;;;;;5.19;63.69;100324.50;8502549;33;20524;-74
2022/04/19 05:04:27;;;;;;;18.63;11.00;;;;;;;5.30;63.54;100318.53;8508427;33;20148;-74
2022/04/19 05:09:30;;;;;;;21.70;12.27;;;;;;;5.41;63.22;100311.59;8497064;33;20428;-74
2022/04/19 05:14:35;;;;;;;15.02;10.73;;;;;;;5.46;63.04;100314.84;8495435;33;20133;-74
2022/04/19 05:19:38;;;;;;;16.88;10.77;;;;;;;5.54;62.99;100322.38;8494642;33;20432;-74
2022/04/19 05:24:41;;;;;;;19.13;10.50;;;;;;;5.53;63.54;100323.31;8494803;33;20457;-74
2022/04/19 05:29:46;;;;;;;14.45;10.65;;;;;;;5.56;63.62;100323.09;8493863;33;20426;-74
2022/04/19 05:34:51;;;;;;;16.80;12.10;;;;;;;5.57;63.60;100323.97;8495052;33;20425;-74
2022/04/19 05:39:55;;;;;;;17.70;11.35;;;;;;;5.67;63.54;100333.13;8494574;33;20279;-74
2022/04/19 05:44:59;;;;;;;22.58;11.32;;;;;;;5.78;63.83;100338.63;8516476;33;20227;-74
2022/04/19 05:50:03;;;;;;;19.05;10.70;;;;;;;5.90;63.75;100335.22;8495825;33;20148;-73
2022/04/19 05:55:09;;;;;;;17.88;10.55;;;;;;;6.05;63.53;100332.53;8497892;33;20528;-74
2022/04/19 06:00:14;;;;;;;16.17;11.25;;;;;;;6.16;63.02;100328.22;8523378;33;20178;-74
2022/04/19 06:05:23;;;;;;;9.15;5.47;;;;;;;6.15;63.96;100325.69;8501530;33;21011;-74
2022/04/19 06:10:27;;;;;;;10.45;6.63;;;;;;;6.45;63.60;100325.53;8500720;33;20141;-74
2022/04/19 06:15:32;;;;;;;12.50;7.28;;;;;;;7.02;62.88;100335.16;8499898;33;20440;-74
2022/04/19 06:20:36;;;;;;;13.00;8.05;;;;;;;7.50;61.28;100330.97;8499496;33;20210;-74
2022/04/19 06:25:39;;;;;;;17.42;10.20;;;;;;;7.62;60.66;100328.41;8498120;33;20194;-74
2022/04/19 06:30:44;;;;;;;14.18;7.85;;;;;;;8.06;59.89;100330.59;8498962;33;20441;-74
2022/04/19 06:35:48;;;;;;;16.98;8.55;;;;;;;8.51;58.10;100335.47;8515775;33;20423;-74
2022/04/19 06:40:52;;;;;;;15.85;10.43;;;;;;;8.75;57.02;100339.03;8490244;33;20453;-74
2022/04/19 06:45:57;;;;;;;17.13;11.40;;;;;;;8.95;56.72;100348.25;8486823;33;20145;-74
2022/04/19 06:51:02;;;;;;;17.83;11.35;;;;;;;9.16;55.96;100344.91;8492696;33;20408;-74
2022/04/19 06:56:26;;;;;;;17.67;11.43;;;;;;;9.33;56.23;100349.88;8490927;33;20419;-74
2022/04/19 07:01:31;;;;;;;16.17;10.93;;;;;;;9.58;55.91;100342.63;8492519;33;20411;-74
2022/04/19 07:06:57;;;;;;;17.52;10.60;;;;;;;9.95;55.37;100337.91;8512037;33;20169;-74
2022/04/19 07:12:00;;;;;;;16.73;9.55;;;;;;;10.37;53.67;100347.06;8488009;33;20443;-74
2022/04/19 07:17:10;;;;;;;18.07;9.43;;;;;;;10.76;52.50;100338.56;8489591;33;20567;-74
2022/04/19 07:27:40;;;;;;;13.48;8.75;;;;;;;11.51;49.71;100340.31;8487919;33;20871;-74
2022/04/19 07:32:45;;;;;;;13.55;8.38;;;;;;;11.77;48.80;100337.25;8488626;33;20846;-74
2022/04/19 07:38:02;;;;;;;9.07;6.28;;;;;;;12.01;48.04;100332.38;8492920;33;20403;-74
2022/04/19 07:43:35;;;;;;;10.70;6.10;;;;;;;12.14;47.07;100341.06;8493500;33;20151;-74
2022/04/19 07:48:39;;;;;;;7.10;4.97;;;;;;;12.20;45.27;100346.91;8524802;33;20625;-74
2022/04/19 07:53:43;;;;;;;8.45;5.10;;;;;;;12.48;45.02;100345.31;8501932;33;20468;-74
2022/04/19 07:58:53;;;;;;;7.15;4.93;;;;;;;12.76;44.89;100341.00;8497242;33;21233;-74
2022/04/19 08:03:58;;;;;;;8.52;4.65;;;;;;;12.95;43.93;100341.03;8496998;33;20424;-74
2022/04/19 08:09:01;;;;;;;6.63;4.05;;;;;;;13.07;43.25;100338.19;8497527;33;20152;-74
2022/04/19 08:14:04;;;;;;;6.88;4.30;;;;;;;13.49;43.29;100339.63;8493934;33;20546;-74
2022/04/19 08:19:08;;;;;;;7.10;4.35;;;;;;;13.87;42.17;100334.28;8496761;33;20148;-74
2022/04/19 08:24:11;;;;;;;5.15;3.47;;;;;;;14.03;41.45;100330.94;8507251;33;20424;-74
2022/04/19 08:29:15;;;;;;;5.68;4.20;;;;;;;14.27;41.18;100327.72;8511058;33;20441;-72
2022/04/19 08:34:20;;;;;;;4.20;3.38;;;;;;;14.23;40.93;100326.31;8508247;33;20406;-74
2022/04/19 08:39:23;;;;;;;4.00;2.75;;;;;;;14.72;39.85;100324.22;8498929;33;20149;-74
2022/04/19 08:44:26;;;;;;;5.45;3.13;;;;;;;14.85;38.88;100326.56;8520567;33;20287;-74
2022/04/19 08:49:31;;;;;;;4.07;3.03;;;;;;;15.17;38.70;100329.56;8519401;33;20574;-74
2022/04/19 08:59:54;;;;;;;4.85;3.30;;;;;;;15.29;37.54;100337.44;8647277;27;20412;-72
2022/04/19 09:05:18;;;;;;;4.78;3.28;;;;;;;15.17;37.85;100336.84;8640799;33;20407;-71
2022/04/19 09:10:28;;;;;;;5.28;3.45;;;;;;;15.49;38.41;100341.69;8581601;33;20428;-73
2022/04/19 09:15:37;;;;;;;4.93;3.63;;;;;;;15.64;38.04;100340.13;8581433;33;20398;-71
2022/04/19 09:20:42;;;;;;;5.95;3.40;;;;;;;15.89;36.99;100342.97;8581797;33;20141;-73
2022/04/19 09:25:46;;;;;;;4.18;2.67;;;;;;;15.85;36.86;100345.19;8582954;33;20427;-73
2022/04/19 09:30:52;;;;;;;3.45;2.55;;;;;;;16.04;36.48;100344.06;8583559;33;20620;-71
2022/04/19 09:35:59;;;;;;;4.72;2.60;;;;;;;16.54;36.08;100334.34;8589193;33;20143;-73
2022/04/19 09:41:10;;;;;;;3.88;2.65;;;;;;;16.56;36.42;100338.59;8595375;33;20144;-73
2022/04/19 09:46:28;;;;;;;4.18;3.10;;;;;;;16.85;35.61;100334.59;8594780;33;20485;-73
2022/04/19 09:51:35;;;;;;;3.40;2.80;;;;;;;16.96;35.06;100339.69;8595453;33;20488;-73
2022/04/19 09:56:39;;;;;;;3.15;2.42;;;;;;;16.85;35.08;100342.72;8594210;33;20624;-73
2022/04/19 10:12:34;;;;;;;3.95;3.55;;;;;;;17.00;34.31;100337.47;8587935;33;20509;-73
2022/04/19 10:17:37;;;;;;;4.05;2.40;;;;;;;17.57;34.11;100337.53;8579772;33;20696;-73
2022/04/19 10:22:48;;;;;;;3.30;1.30;;;;;;;17.36;30.52;100339.91;8558251;33;20493;-73
2022/04/19 10:28:04;;;;;;;1.10;1.00;;;;;;;17.08;29.37;100339.38;8579063;33;20383;-73
2022/04/19 10:33:49;;;;;;;3.65;1.10;;;;;;;17.50;29.74;100339.25;8576590;33;20234;-73
2022/04/19 10:39:23;;;;;;;1.67;1.33;;;;;;;17.86;29.29;100339.72;8525937;33;20420;-72
2022/04/19 10:44:32;;;;;;;2.17;1.30;;;;;;;18.06;29.30;100331.19;8574093;33;20394;-74
2022/04/19 10:49:58;;;;;;;1.77;1.40;;;;;;;18.42;28.28;100323.41;8575629;33;20528;-73
2022/04/19 10:55:06;;;;;;;1.60;1.30;;;;;;;18.10;27.98;100340.69;8572422;33;20403;-72
2022/04/19 11:00:22;;;;;;;3.13;1.67;;;;;;;17.92;28.30;100322.72;8571119;33;20655;-72
2022/04/19 11:05:47;;;;;;;3.75;2.42;;;;;;;18.89;28.21;100316.19;8573961;33;20189;-72
2022/04/19 11:11:08;;;;;;;4.80;2.00;;;;;;;18.90;27.02;100318.75;8574297;33;20438;-72
2022/04/19 11:16:13;;;;;;;2.15;1.77;;;;;;;18.71;26.85;100319.19;8578286;33;20174;-72
2022/04/19 11:21:16;;;;;;;2.42;1.60;;;;;;;19.11;25.68;100295.44;8581045;33;20177;-72
2022/04/19 11:26:42;;;;;;;1.95;1.52;;;;;;;20.53;25.31;100304.53;8552092;33;20197;-72
2022/04/19 11:32:07;;;;;;;2.35;1.88;;;;;;;21.56;23.76;100303.28;8577764;33;20369;-72
2022/04/19 11:37:10;;;;;;;1.92;1.70;;;;;;;21.78;22.72;100301.38;8572415;33;20158;-72
2022/04/19 11:47:44;;;;;;;2.30;2.00;;;;;;;21.71;21.81;100296.88;8570420;33;20234;-72
2022/04/19 11:52:48;;;;;;;3.13;1.65;;;;;;;22.16;22.22;100302.84;8546431;33;20512;-73
2022/04/19 11:58:04;;;;;;;1.80;1.70;;;;;;;22.31;22.36;100290.72;8576688;33;20172;-72
2022/04/19 12:03:26;;;;;;;1.60;1.45;;;;;;;22.36;21.07;100286.53;8557051;33;20234;-72
2022/04/19 12:08:38;;;;;;;2.60;1.90;;;;;;;22.04;23.03;100295.19;8583662;33;21001;-73
2022/04/19 12:13:46;;;;;;;1.85;1.63;;;;;;;22.17;21.52;100293.59;8584235;33;20912;-73
2022/04/19 12:18:54;;;;;;;2.10;1.90;;;;;;;22.23;21.91;100290.03;8585074;33;20415;-73
2022/04/19 12:23:58;;;;;;;2.20;2.00;;;;;;;22.17;21.54;100290.88;8583278;33;20183;-73
2022/04/19 12:29:14;;;;;;;2.22;1.60;;;;;;;22.34;21.87;100298.50;8577875;33;20147;-72
2022/04/19 12:34:17;;;;;;;2.45;1.70;;;;;;;22.70;21.58;100291.09;8582148;33;20242;-73
2022/04/19 12:39:23;;;;;;;2.75;1.77;;;;;;;22.24;21.37;100298.06;8592797;33;20580;-72
2022/04/19 12:44:27;;;;;;;2.72;2.20;;;;;;;22.23;22.50;100285.41;8583175;33;20513;-73
2022/04/19 12:49:32;;;;;;;2.80;2.25;;;;;;;21.94;22.78;100285.69;8582296;33;20226;-73
2022/04/19 12:54:37;;;;;;;3.67;2.53;;;;;;;21.58;23.94;100282.03;8582490;33;20482;-74
2022/04/19 12:59:43;;;;;;;3.50;2.60;;;;;;;22.18;23.04;100274.22;8581513;33;20588;-72
2022/04/19 13:04:48;;;;;;;4.18;2.97;;;;;;;22.40;23.46;100265.91;8583649;33;20409;-72
2022/04/19 13:15:13;;;;;;;7.45;3.22;;;;;;;22.52;23.59;100256.94;8595558;33;20534;-73
2022/04/19 13:20:17;;;;;;;3.13;2.58;;;;;;;22.57;23.48;100258.19;8594627;33;20873;-72
2022/04/19 13:25:20;;;;;;;3.90;2.78;;;;;;;22.40;22.95;100258.53;8595706;33;20198;-73
2022/04/19 13:30:28;;;;;;;4.25;2.50;;;;;;;21.91;23.31;100247.78;8598887;33;20444;-72
2022/04/19 13:35:31;;;;;;;6.97;2.25;;;;;;;22.06;23.84;100254.00;8601154;33;20140;-72
2022/04/19 13:40:34;;;;;;;2.95;2.70;;;;;;;22.00;23.34;100252.06;8603693;33;20231;-72
2022/04/19 13:45:39;;;;;;;2.70;2.50;;;;;;;21.03;24.53;100253.63;8602715;33;20250;-72
2022/04/19 13:50:42;;;;;;;3.63;2.72;;;;;;;20.73;24.72;100252.91;8600545;33;20678;-72
2022/04/19 13:55:45;;;;;;;3.65;2.65;;;;;;;21.25;25.24;100248.16;8594628;33;20148;-72
2022/04/19 14:00:49;;;;;;;2.85;2.50;;;;;;;22.13;23.81;100237.59;8596582;33;20140;-72
2022/04/19 14:05:52;;;;;;;3.00;2.25;;;;;;;21.88;23.55;100236.22;8585975;33;20532;-72
2022/04/19 14:10:58;;;;;;;3.08;2.50;;;;;;;21.05;24.59;100246.13;8584754;33;20406;-72
2022/04/19 14:16:02;;;;;;;2.95;2.45;;;;;;;21.00;24.73;100246.66;8590503;33;20144;-72
2022/04/19 14:21:05;;;;;;;3.78;2.50;;;;;;;21.52;24.38;100251.94;8581308;33;20424;-73
2022/04/19 14:26:08;;;;;;;4.40;2.55;;;;;;;22.53;23.05;100231.25;8579518;33;20966;-72
2022/04/19 14:36:34;;;;;;;2.72;2.50;;;;;;;22.63;23.22;100230.03;8578543;33;20139;-73
2022/04/19 14:41:38;;;;;;;3.13;2.20;;;;;;;21.85;23.23;100230.31;8579158;33;20246;-73
2022/04/19 14:46:42;;;;;;;2.88;2.35;;;;;;;21.86;23.21;100232.03;8580947;33;20885;-73
2022/04/19 14:57:06;;;;;;;3.05;2.30;;;;;;;21.13;23.79;100240.50;8583075;33;20421;-72
2022/04/19 15:02:12;;;;;;;2.17;1.90;;;;;;;21.63;24.01;100221.31;8583856;33;20632;-72
2022/04/19 15:07:16;;;;;;;6.97;2.40;;;;;;;21.91;23.83;100226.75;8582639;33;20406;-71
2022/04/19 15:12:21;;;;;;;2.00;1.80;;;;;;;21.97;22.92;100219.63;8583339;33;20419;-72
2022/04/19 15:17:26;;;;;;;2.65;1.80;;;;;;;22.30;23.24;100217.91;8581603;33;20490;-72
2022/04/19 15:22:29;;;;;;;4.05;1.83;;;;;;;21.82;22.63;100211.59;8558117;33;20148;-72
2022/04/19 15:27:32;;;;;;;2.70;2.00;;;;;;;21.77;23.40;100214.06;8583395;33;20176;-72
2022/04/19 15:32:37;;;;;;;2.15;1.90;;;;;;;21.77;23.23;100216.81;8582832;33;20227;-71
2022/04/19 15:37:41;;;;;;;2.53;1.80;;;;;;;21.42;23.10;100211.34;8581995;33;20497;-71
2022/04/19 15:42:44;;;;;;;3.85;1.85;;;;;;;21.45;23.02;100214.50;8581431;33;20140;-71
2022/04/19 15:47:48;;;;;;;2.60;1.80;;;;;;;21.36;23.72;100212.94;8580105;33;20179;-71
2022/04/19 15:52:51;;;;;;;2.72;1.50;;;;;;;21.59;23.06;100212.69;8583093;33;20495;-71
2022/04/19 15:57:54;;;;;;;1.33;1.23;;;;;;;21.23;22.81;100218.34;8582800;33;20437;-71
2022/04/19 16:02:59;;;;;;;3.90;1.80;;;;;;;20.50;23.11;100218.47;8584484;33;20510;-73
2022/04/19 16:08:02;;;;;;;3.38;2.00;;;;;;;19.85;23.71;100219.31;8578783;33;20459;-72
2022/04/19 16:13:11;;;;;;;3.33;2.20;;;;;;;20.00;24.07;100211.97;8577617;33;20693;-72
2022/04/19 16:23:38;;;;;;;2.72;1.50;;;;;;;19.98;23.78;100214.03;8549817;33;21099;-72
2022/04/19 16:28:44;;;;;;;1.42;1.33;;;;;;;19.66;23.89;100210.72;8585925;33;20913;-72
2022/04/19 16:33:48;;;;;;;3.00;1.70;;;;;;;19.78;24.41;100208.34;8579821;33;20151;-72
2022/04/19 16:38:52;;;;;;;1.88;1.50;;;;;;;20.10;24.69;100208.94;8576135;33;20529;-72
2022/04/19 16:43:55;;;;;;;1.85;1.40;;;;;;;19.65;24.12;100202.69;8576769;33;20545;-71
2022/04/19 16:48:59;;;;;;;3.33;1.60;;;;;;;19.20;24.92;100209.97;8579841;33;20899;-72
2022/04/19 16:54:02;;;;;;;3.15;1.67;;;;;;;18.80;25.53;100209.28;8582684;33;20504;-71
2022/04/19 16:59:05;;;;;;;2.08;1.55;;;;;;;18.84;25.03;100213.34;8581602;33;20458;-71
2022/04/19 17:04:11;;;;;;;1.50;1.40;;;;;;;18.67;25.45;100214.47;8580178;33;20491;-71
2022/04/19 17:09:14;;;;;;;2.42;1.50;;;;;;;18.80;25.76;100214.75;8586948;33;20515;-72
2022/04/19 17:14:20;;;;;;;1.95;1.55;;;;;;;18.84;25.45;100213.34;8596474;33;20419;-71
2022/04/19 17:19:24;;;;;;;3.55;1.70;;;;;;;18.49;25.84;100225.66;8597240;33;20345;-71
2022/04/19 17:24:27;;;;;;;2.75;1.50;;;;;;;19.54;24.50;100222.22;8598078;33;20147;-71
2022/04/19 17:29:32;;;;;;;2.20;1.40;;;;;;;19.63;24.13;100224.69;8598451;33;20243;-71
2022/04/19 17:34:36;;;;;;;2.00;1.73;;;;;;;17.76;26.20;100234.97;8585576;33;20554;-73
2022/04/19 17:39:40;;;;;;;3.00;1.60;;;;;;;16.90;27.19;100242.72;8585095;33;20423;-73
2022/04/19 17:44:43;;;;;;;1.77;1.40;;;;;;;16.42;28.02;100238.91;8584829;33;20515;-72
2022/04/19 18:00:30;;;;;;;3.35;1.60;;;;;;;15.14;29.84;100273.06;8584106;33;20540;-73
2022/04/19 18:05:34;;;;;;;4.03;1.80;;;;;;;14.81;30.30;100280.03;8589268;33;20148;-73
2022/04/19 18:10:37;;;;;;;4.13;1.80;;;;;;;14.63;31.13;100285.44;8592544;33;20518;-72
2022/04/19 18:15:51;;;;;;;2.15;1.58;;;;;;;14.31;31.79;100296.69;8586132;33;20455;-73
2022/04/19 18:20:56;;;;;;;1.80;1.70;;;;;;;13.91;32.47;100306.84;8580510;33;20140;-72
2022/04/19 18:25:59;;;;;;;4.40;1.60;;;;;;;13.71;32.41;100308.75;8580178;33;20148;-71
2022/04/19 18:31:02;;;;;;;2.75;2.10;;;;;;;13.63;32.25;100316.72;8581875;33;20224;-73
2022/04/19 18:36:08;;;;;;;2.42;1.90;;;;;;;13.48;32.63;100329.81;8579357;33;20731;-73
2022/04/19 18:41:11;;;;;;;2.50;2.00;;;;;;;13.41;33.38;100336.81;8580349;33;20151;-72
2022/04/19 18:46:14;;;;;;;3.67;2.15;;;;;;;13.21;33.42;100349.41;8580692;33;20671;-71
2022/04/19 18:51:23;;;;;;;3.10;1.80;;;;;;;12.97;33.65;100355.22;8580262;33;20418;-72
2022/04/19 18:56:26;;;;;;;1.77;1.67;;;;;;;12.78;33.60;100357.88;8578994;33;20152;-72
2022/04/19 19:01:29;;;;;;;3.45;1.30;;;;;;;12.63;33.17;100365.53;8578422;33;20186;-72
2022/04/19 19:06:33;;;;;;;2.13;1.65;;;;;;;12.56;32.94;100367.94;8580131;33;20447;-71
2022/04/19 19:11:37;;;;;;;1.70;1.55;;;;;;;12.58;32.79;100367.78;8582566;33;20409;-72
2022/04/19 19:16:41;;;;;;;2.25;1.67;;;;;;;12.46;33.25;100375.13;8577349;33;20889;-72
2022/04/19 19:21:46;;;;;;;2.53;1.73;;;;;;;12.31;33.49;100384.56;8575946;33;20137;-72
2022/04/19 19:26:49;;;;;;;3.33;1.98;;;;;;;12.25;33.65;100388.59;8579217;33;20281;-72
2022/04/19 19:31:52;;;;;;;3.10;1.75;;;;;;;12.16;33.74;100398.34;8579441;33;20194;-72
2022/04/19 19:36:59;;;;;;;3.50;1.75;;;;;;;12.04;33.57;100398.56;8583081;33;20418;-72
2022/04/19 19:42:03;;;;;;;2.35;1.88;;;;;;;11.99;33.77;100406.22;8582443;33;20465;-72
2022/04/19 19:47:06;;;;;;;2.00;1.80;;;;;;;11.94;33.88;100411.97;8582082;33;20225;-72
2022/04/19 19:52:10;;;;;;;3.22;2.35;;;;;;;11.86;33.89;100417.16;8582467;33;20606;-72
2022/04/19 19:57:13;;;;;;;3.35;1.90;;;;;;;11.77;34.25;100420.66;8580743;33;20426;-72
2022/04/19 20:02:18;;;;;;;2.50;1.98;;;;;;;11.71;34.35;100425.59;8578303;33;20432;-72
2022/04/19 20:07:23;;;;;;;3.25;1.83;;;;;;;11.53;34.63;100424.44;8578890;33;20414;-72
2022/04/19 20:12:26;;;;;;;4.28;1.70;;;;;;;11.46;34.97;100423.25;8577244;33;20942;-72
2022/04/19 20:17:30;;;;;;;4.63;2.00;;;;;;;11.43;34.95;100418.13;8572134;33;20564;-72
2022/04/19 20:22:34;;;;;;;3.50;2.17;;;;;;;11.39;35.28;100428.28;8577592;33;20140;-72
2022/04/19 20:27:37;;;;;;;4.38;2.10;;;;;;;11.35;35.58;100434.91;8577477;33;20337;-72
2022/04/19 20:32:42;;;;;;;2.67;2.03;;;;;;;11.36;35.85;100438.47;8570456;33;20338;-72
2022/04/19 20:37:46;;;;;;;2.20;1.98;;;;;;;11.22;35.90;100439.63;8574195;33;20415;-72
2022/04/19 20:42:49;;;;;;;3.35;2.40;;;;;;;11.13;36.18;100441.19;8573217;33;20267;-72
2022/04/19 20:53:15;;;;;;;3.25;2.00;;;;;;;10.94;36.99;100440.97;8577642;33;20242;-74
2022/04/19 20:58:20;;;;;;;3.33;2.03;;;;;;;10.90;37.63;100442.22;8583348;33;20478;-73
2022/04/19 21:03:23;;;;;;;2.70;2.03;;;;;;;10.82;37.47;100446.38;8584714;33;20287;-73
2022/04/19 21:08:27;;;;;;;3.40;2.28;;;;;;;10.76;37.78;100446.03;8583632;33;20137;-73
2022/04/19 21:13:30;;;;;;;2.65;2.40;;;;;;;10.65;38.19;100454.94;8584535;33;20458;-73
2022/04/19 21:18:33;;;;;;;5.72;2.97;;;;;;;10.60;37.94;100454.47;8582227;33;20429;-72
2022/04/19 21:23:38;;;;;;;4.20;2.58;;;;;;;10.45;38.59;100456.56;8583873;33;20404;-72
2022/04/19 21:28:41;;;;;;;7.68;3.20;;;;;;;10.42;38.77;100458.59;8583309;33;20172;-72
2022/04/19 21:33:44;;;;;;;5.32;3.00;;;;;;;10.33;39.27;100458.34;8583944;33;20227;-73
2022/04/19 21:38:48;;;;;;;3.92;2.70;;;;;;;10.19;39.82;100461.28;8582771;33;20210;-73
2022/04/19 21:43:51;;;;;;;4.82;2.42;;;;;;;10.07;40.13;100464.94;8583940;33;20445;-72
2022/04/19 21:48:54;;;;;;;3.90;2.50;;;;;;;9.85;40.83;100465.72;8584745;33;20544;-72
2022/04/19 21:53:58;;;;;;;3.55;2.30;;;;;;;9.73;41.03;100467.47;8579810;33;20140;-73
2022/04/19 21:59:01;;;;;;;4.35;3.03;;;;;;;9.63;42.00;100469.16;8581014;33;20880;-72
2022/04/19 22:04:04;;;;;;;4.47;2.58;;;;;;;9.57;42.47;100465.13;8599098;33;20512;-73
2022/04/19 22:09:09;;;;;;;2.72;2.20;;;;;;;9.57;42.42;100478.53;8597992;33;20412;-74
2022/04/19 22:14:12;;;;;;;3.42;1.83;;;;;;;9.59;42.96;100481.94;8586417;33;20533;-74
2022/04/19 22:19:16;;;;;;;2.95;2.05;;;;;;;9.64;42.65;100478.91;8582637;33;20406;-73
2022/04/19 22:24:20;;;;;;;2.67;1.90;;;;;;;9.60;42.82;100483.66;8580092;33;20235;-74
2022/04/19 22:29:23;;;;;;;2.92;2.00;;;;;;;9.54;43.09;100491.28;8579258;33;20444;-74
2022/04/19 22:34:26;;;;;;;2.15;1.88;;;;;;;9.53;43.22;100497.66;8580211;33;20505;-73
2022/04/19 22:39:31;;;;;;;2.22;2.03;;;;;;;9.53;43.34;100498.50;8580360;33;21078;-73
2022/04/19 22:44:34;;;;;;;2.78;1.95;;;;;;;9.39;43.42;100504.03;8581184;33;20148;-73
2022/04/19 22:49:37;;;;;;;3.28;1.92;;;;;;;9.37;43.67;100497.94;8580282;33;20179;-72
2022/04/19 22:54:41;;;;;;;4.25;2.47;;;;;;;9.33;43.71;100505.34;8578173;33;20159;-71
2022/04/19 22:59:44;;;;;;;4.78;2.22;;;;;;;9.26;44.33;100501.41;8577712;33;20418;-72
2022/04/19 23:04:47;;;;;;;2.55;2.05;;;;;;;9.16;43.79;100517.31;8578012;33;20491;-74
2022/04/19 23:09:51;;;;;;;4.03;2.40;;;;;;;9.16;44.29;100511.06;8584327;33;20537;-73
2022/04/19 23:14:54;;;;;;;3.08;2.35;;;;;;;9.24;44.40;100506.00;8584270;33;20470;-73
2022/04/19 23:19:58;;;;;;;4.53;2.30;;;;;;;9.19;44.45;100511.72;8586870;33;20129;-74
2022/04/19 23:25:02;;;;;;;2.67;2.10;;;;;;;9.10;44.29;100506.16;8582309;33;20227;-74
2022/04/19 23:30:07;;;;;;;3.33;2.03;;;;;;;9.07;44.33;100523.31;8582020;33;20190;-73
2022/04/19 23:35:10;;;;;;;6.20;2.25;;;;;;;9.05;44.31;100527.94;8582930;33;20699;-73
2022/04/19 23:40:15;;;;;;;3.30;2.10;;;;;;;9.01;43.90;100521.94;8582028;33;20337;-72
2022/04/19 23:45:18;;;;;;;3.58;2.53;;;;;;;9.11;44.19;100521.31;8586353;33;20416;-72
2022/04/19 23:50:21;;;;;;;3.35;2.15;;;;;;;9.08;44.84;100516.13;8585476;33;20927;-72
2022/04/19 23:55:25;;;;;;;4.45;2.13;;;;;;;8.86;45.67;100520.38;8585891;33;20164;-72
